Time;durP1;ratioP1;P1;durP2;ratioP2;P2;SDS_P1;SDS_P2;PMS_P1;PMS_P2;Temp;Humidity;BMP_temperature;BMP_pressure;BME280_temperature;BME280_humidity;BME280_pressure;Samples;Min_cycle;Max_cycle;Signal;HPM_P1;HPM_P2
2022/03/29 00:01:24;;;;;;;;;;;;;;;7.78;56.63;99746.94;2107979;83;20170;-80
2022/03/29 00:04:25;;;;;;;;;;;;;;;7.74;56.75;99749.57;2106317;83;20103;-79
2022/03/29 00:07:26;;;;;;;;;;;;;;;7.72;56.94;99751.53;2109578;83;20153;-80
2022/03/29 00:10:27;;;;;;;;;;;;;;;7.71;57.14;99745.07;2111465;83;20175;-79
2022/03/29 00:13:28;;;;;;;;;;;;;;;7.69;57.16;99743.92;2108019;83;20138;-81
2022/03/29 00:16:29;;;;;;;;;;;;;;;7.62;57.13;99741.06;2109678;83;20166;-79
2022/03/29 00:19:30;;;;;;;;;;;;;;;7.46;57.28;99748.92;2113603;83;20133;-81
2022/03/29 00:22:31;;;;;;;;;;;;;;;7.37;57.24;99752.47;2111989;83;20135;-79
2022/03/29 00:25:32;;;;;;;;;;;;;;;7.28;57.46;99755.55;2107210;83;20127;-80
2022/03/29 00:28:33;;;;;;;;;;;;;;;7.23;57.58;99751.70;2112846;83;20186;-81
2022/03/29 00:31:34;;;;;;;;;;;;;;;7.11;57.75;99749.31;2107935;83;20182;-80
2022/03/29 00:34:36;;;;;;;;;;;;;;;7.04;57.88;99748.29;2110185;83;20191;-79
2022/03/29 00:37:38;;;;;;;;;;;;;;;7.01;58.10;99748.59;2107986;83;20496;-79
2022/03/29 00:40:39;;;;;;;;;;;;;;;7.00;58.21;99742.14;2109698;83;20142;-79
2022/03/29 00:43:40;;;;;;;;;;;;;;;7.00;58.35;99737.69;2114034;83;20137;-77
2022/03/29 00:46:41;;;;;;;;;;;;;;;6.90;58.46;99731.69;2106863;83;20153;-79
2022/03/29 00:49:42;;;;;;;;;;;;;;;6.88;58.61;99728.37;2111585;83;20223;-80
2022/03/29 00:52:43;;;;;;;;;;;;;;;6.87;58.65;99725.38;2109945;83;20231;-78
2022/03/29 00:55:45;;;;;;;;;;;;;;;6.84;58.84;99719.09;2108250;83;20141;-81
2022/03/29 00:58:46;;;;;;;;;;;;;;;6.79;58.90;99720.06;2128617;82;20190;-78
2022/03/29 01:01:57;;;;;;;;;;;;;;;6.74;59.01;99718.69;2126048;83;20199;-80
2022/03/29 01:04:58;;;;;;;;;;;;;;;6.63;59.04;99724.19;2124860;82;20182;-79
2022/03/29 01:08:00;;;;;;;;;;;;;;;6.57;59.27;99729.25;2124834;82;20233;-80
2022/03/29 01:11:02;;;;;;;;;;;;;;;6.55;59.46;99732.02;2128848;82;20163;-81
2022/03/29 01:14:04;;;;;;;;;;;;;;;6.53;59.58;99736.61;2120713;83;20164;-79
2022/03/29 01:20:30;;;;;;;;;;;;;;;6.43;59.70;99725.33;2127313;83;20136;-77
2022/03/29 01:23:29;;;;;;;;;;;;;;;6.38;59.97;99723.62;2127173;83;20136;-80
2022/03/29 01:26:30;;;;;;;;;;;;;;;6.32;60.08;99715.83;2129533;83;20332;-80
2022/03/29 01:29:33;;;;;;;;;;;;;;;6.30;60.24;99725.67;2126553;83;20488;-82
2022/03/29 01:32:35;;;;;;;;;;;;;;;6.26;60.40;99724.33;2124127;83;20465;-80
2022/03/29 01:35:36;;;;;;;;;;;;;;;6.20;60.46;99724.43;2127493;83;20161;-80
2022/03/29 01:38:38;;;;;;;;;;;;;;;6.17;60.54;99718.14;2127753;83;20145;-81
2022/03/29 01:41:39;;;;;;;;;;;;;;;6.13;60.67;99719.89;2126961;82;20171;-80
2022/03/29 01:44:40;;;;;;;;;;;;;;;6.11;60.81;99720.52;2123224;82;20168;-78
2022/03/29 01:47:41;;;;;;;;;;;;;;;6.09;61.03;99724.64;2124425;83;20136;-80
2022/03/29 01:50:42;;;;;;;;;;;;;;;6.03;61.12;99730.00;2125494;82;20157;-79
2022/03/29 01:53:46;;;;;;;;;;;;;;;6.03;61.30;99727.37;2124922;83;20434;-79
2022/03/29 01:56:47;;;;;;;;;;;;;;;6.04;61.41;99735.60;2119359;83;20139;-83
2022/03/29 02:03:09;;;;;;;;;;;;;;;6.08;61.68;99715.06;2104034;83;20171;-82
2022/03/29 02:06:10;;;;;;;;;;;;;;;6.14;61.90;99705.73;2113167;83;20181;-80
2022/03/29 02:09:11;;;;;;;;;;;;;;;6.17;61.98;99704.15;2108800;83;20182;-80
2022/03/29 02:12:12;;;;;;;;;;;;;;;6.22;62.10;99698.77;2111127;83;20166;-81
2022/03/29 02:15:13;;;;;;;;;;;;;;;6.25;62.17;99698.48;2107058;83;20142;-80
2022/03/29 02:18:15;;;;;;;;;;;;;;;6.31;62.20;99696.19;2106416;83;20140;-79
2022/03/29 02:21:17;;;;;;;;;;;;;;;6.33;62.28;99691.61;2113959;83;20101;-79
2022/03/29 02:24:18;;;;;;;;;;;;;;;6.33;62.18;99691.12;2110516;83;20452;-79
2022/03/29 02:27:19;;;;;;;;;;;;;;;6.29;62.22;99680.55;2112143;83;20127;-80
2022/03/29 02:30:20;;;;;;;;;;;;;;;6.25;62.46;99680.49;2111738;83;20173;-78
2022/03/29 02:33:21;;;;;;;;;;;;;;;6.22;62.61;99684.28;2110802;83;20171;-82
2022/03/29 02:36:22;;;;;;;;;;;;;;;6.20;62.59;99682.28;2110240;83;20124;-80
2022/03/29 02:39:23;;;;;;;;;;;;;;;6.21;62.68;99679.16;2111661;83;20159;-78
2022/03/29 02:42:24;;;;;;;;;;;;;;;6.23;62.73;99673.25;2108494;83;20192;-80
2022/03/29 02:45:26;;;;;;;;;;;;;;;6.25;62.79;99670.81;2112508;83;20257;-80
2022/03/29 02:48:27;;;;;;;;;;;;;;;6.29;62.81;99667.38;2108193;83;20195;-80
2022/03/29 02:51:28;;;;;;;;;;;;;;;6.32;62.78;99668.39;2108086;83;20147;-80
2022/03/29 02:54:29;;;;;;;;;;;;;;;6.34;62.85;99674.84;2113986;83;20202;-78
2022/03/29 02:57:30;;;;;;;;;;;;;;;6.35;62.92;99673.86;2109543;83;20225;-80
2022/03/29 03:00:32;;;;;;;;;;;;;;;6.34;62.91;99666.94;2111588;83;20177;-80
2022/03/29 03:03:33;;;;;;;;;;;;;;;6.33;62.96;99666.58;2110700;83;20154;-78
2022/03/29 03:06:34;;;;;;;;;;;;;;;6.31;62.95;99653.57;2114020;83;20483;-81
2022/03/29 03:09:35;;;;;;;;;;;;;;;6.29;63.14;99658.16;2106778;83;20471;-78
2022/03/29 03:12:40;;;;;;;;;;;;;;;6.24;63.12;99653.33;2110308;83;20109;-81
2022/03/29 03:15:41;;;;;;;;;;;;;;;6.24;63.23;99657.77;2111644;83;20151;-80
2022/03/29 03:18:42;;;;;;;;;;;;;;;6.23;63.25;99643.77;2114813;83;20163;-79
2022/03/29 03:21:43;;;;;;;;;;;;;;;6.25;63.35;99643.14;2111867;83;20196;-80
2022/03/29 03:24:44;;;;;;;;;;;;;;;6.26;63.30;99634.25;2109873;83;20107;-81
2022/03/29 03:27:45;;;;;;;;;;;;;;;6.29;63.25;99638.39;2107758;83;20173;-81
2022/03/29 03:30:46;;;;;;;;;;;;;;;6.32;63.24;99646.48;2113007;83;20210;-83
2022/03/29 03:33:47;;;;;;;;;;;;;;;6.28;63.14;99637.57;2113241;83;20147;-79
2022/03/29 03:36:48;;;;;;;;;;;;;;;6.28;63.15;99639.38;2109012;83;20171;-80
2022/03/29 03:39:49;;;;;;;;;;;;;;;6.31;63.18;99639.55;2108339;83;20177;-80
2022/03/29 03:42:50;;;;;;;;;;;;;;;6.35;63.20;99642.23;2113283;83;21217;-79
2022/03/29 03:45:50;;;;;;;;;;;;;;;6.37;63.07;99645.55;2114568;83;20155;-80
2022/03/29 03:48:52;;;;;;;;;;;;;;;6.35;62.98;99647.50;2109841;83;20178;-80
2022/03/29 03:51:53;;;;;;;;;;;;;;;6.30;63.01;99649.27;2114194;83;20143;-78
2022/03/29 03:54:56;;;;;;;;;;;;;;;6.23;63.02;99645.09;2117320;83;20289;-80
2022/03/29 03:57:56;;;;;;;;;;;;;;;6.17;62.94;99649.65;2114134;83;20181;-80
2022/03/29 04:00:57;;;;;;;;;;;;;;;6.10;62.96;99655.66;2124677;82;20194;-80
2022/03/29 04:03:58;;;;;;;;;;;;;;;6.01;63.06;99651.63;2128056;82;20132;-81
2022/03/29 04:06:59;;;;;;;;;;;;;;;5.92;63.00;99652.98;2126144;83;20134;-80
2022/03/29 04:10:01;;;;;;;;;;;;;;;5.83;63.17;99648.94;2126507;83;20224;-81
2022/03/29 04:13:02;;;;;;;;;;;;;;;5.76;63.14;99664.97;2126294;82;20156;-81
2022/03/29 04:16:03;;;;;;;;;;;;;;;5.69;63.03;99669.17;2124981;82;20501;-79
2022/03/29 04:19:04;;;;;;;;;;;;;;;5.61;63.00;99673.84;2125816;83;20131;-79
2022/03/29 04:22:06;;;;;;;;;;;;;;;5.55;63.02;99682.82;2107613;83;20667;-81
2022/03/29 04:25:08;;;;;;;;;;;;;;;5.40;63.06;99681.95;2123322;82;20146;-83
2022/03/29 04:28:09;;;;;;;;;;;;;;;5.30;63.34;99682.48;2127530;82;20169;-80
2022/03/29 04:31:10;;;;;;;;;;;;;;;5.21;63.37;99672.84;2123512;82;20465;-80
2022/03/29 04:34:11;;;;;;;;;;;;;;;5.08;63.28;99674.45;2125418;83;20179;-80
2022/03/29 04:37:12;;;;;;;;;;;;;;;4.92;63.36;99672.39;2127348;82;20168;-82
2022/03/29 04:40:13;;;;;;;;;;;;;;;4.83;63.48;99670.62;2126974;83;20562;-82
2022/03/29 04:43:14;;;;;;;;;;;;;;;4.69;63.79;99679.77;2125136;82;20162;-80
2022/03/29 04:46:15;;;;;;;;;;;;;;;4.61;63.93;99680.11;2126348;83;20129;-80
2022/03/29 04:49:16;;;;;;;;;;;;;;;4.55;64.33;99676.73;2126760;82;20173;-78
2022/03/29 04:52:17;;;;;;;;;;;;;;;4.55;64.53;99672.79;2127390;82;20112;-79
2022/03/29 04:55:19;;;;;;;;;;;;;;;4.51;64.50;99669.62;2131021;82;20148;-79
2022/03/29 04:58:21;;;;;;;;;;;;;;;4.44;64.56;99673.75;2121480;82;20160;-79
2022/03/29 05:01:22;;;;;;;;;;;;;;;4.45;64.71;99674.94;2115346;82;20178;-82
2022/03/29 05:04:23;;;;;;;;;;;;;;;4.53;64.79;99679.97;2117065;83;20155;-79
2022/03/29 05:07:24;;;;;;;;;;;;;;;4.61;64.92;99678.80;2113297;83;20339;-82
2022/03/29 05:10:25;;;;;;;;;;;;;;;4.65;64.95;99681.02;2119968;83;20431;-80
2022/03/29 05:13:26;;;;;;;;;;;;;;;4.73;65.04;99680.33;2107753;82;20136;-79
2022/03/29 05:16:27;;;;;;;;;;;;;;;4.81;65.05;99662.03;2102065;83;20143;-82
2022/03/29 05:19:28;;;;;;;;;;;;;;;4.90;65.13;99671.73;2088489;84;20509;-80
2022/03/29 05:22:29;;;;;;;;;;;;;;;5.02;65.17;99667.63;2089506;84;20190;-79
2022/03/29 05:25:32;;;;;;;;;;;;;;;5.26;65.26;99682.91;2087801;84;20133;-79
2022/03/29 05:28:33;;;;;;;;;;;;;;;5.53;65.24;99678.18;2090298;84;20148;-81
2022/03/29 05:31:34;;;;;;;;;;;;;;;5.84;65.11;99691.39;2087653;84;20135;-78
2022/03/29 05:34:35;;;;;;;;;;;;;;;6.16;65.02;99691.44;2089764;84;20141;-79
2022/03/29 05:37:37;;;;;;;;;;;;;;;6.58;64.90;99692.17;2089426;84;20231;-78
2022/03/29 05:40:39;;;;;;;;;;;;;;;7.02;64.60;99701.44;2089455;83;20161;-80
2022/03/29 05:43:40;;;;;;;;;;;;;;;7.43;64.27;99693.77;2089663;84;20197;-80
2022/03/29 05:50:00;;;;;;;;;;;;;;;8.25;63.69;99686.14;2087802;84;20159;-80
2022/03/29 05:53:02;;;;;;;;;;;;;;;8.70;63.13;99695.48;2089857;84;20508;-80
2022/03/29 05:56:03;;;;;;;;;;;;;;;9.09;62.66;99691.66;2086709;83;20171;-81
2022/03/29 05:59:04;;;;;;;;;;;;;;;9.50;62.14;99691.59;2097872;84;20720;-81
2022/03/29 06:02:05;;;;;;;;;;;;;;;9.83;61.68;99683.54;2103635;83;20146;-82
2022/03/29 06:05:09;;;;;;;;;;;;;;;10.00;61.15;99687.76;2106444;84;20240;-81
2022/03/29 06:08:11;;;;;;;;;;;;;;;10.09;60.78;99688.03;2102335;83;20151;-80
2022/03/29 06:11:13;;;;;;;;;;;;;;;10.17;60.17;99692.98;2102064;83;20185;-83
2022/03/29 06:14:14;;;;;;;;;;;;;;;10.09;59.70;99692.52;2098236;84;20127;-79
2022/03/29 06:17:16;;;;;;;;;;;;;;;9.88;59.44;99685.15;2101540;83;20137;-81
2022/03/29 06:20:17;;;;;;;;;;;;;;;9.64;59.52;99690.88;2100986;84;20129;-84
2022/03/29 06:23:19;;;;;;;;;;;;;;;9.51;59.49;99693.23;2105027;83;20145;-83
2022/03/29 06:26:20;;;;;;;;;;;;;;;9.16;59.23;99691.84;2098492;83;20166;-81
2022/03/29 06:29:20;;;;;;;;;;;;;;;8.90;59.69;99690.22;2101036;83;20242;-83
2022/03/29 06:32:21;;;;;;;;;;;;;;;8.81;59.89;99692.52;2097299;83;20177;-82
2022/03/29 06:35:25;;;;;;;;;;;;;;;8.68;59.87;99696.98;2099223;84;20129;-82
2022/03/29 06:38:31;;;;;;;;;;;;;;;8.52;60.01;99697.80;2100217;83;20468;-84
2022/03/29 06:41:32;;;;;;;;;;;;;;;8.39;60.18;99704.08;2102784;83;20141;-83
2022/03/29 06:44:34;;;;;;;;;;;;;;;8.30;60.23;99704.99;2102036;83;20195;-81
2022/03/29 06:47:35;;;;;;;;;;;;;;;8.16;60.45;99706.95;2106353;83;20303;-83
2022/03/29 06:50:36;;;;;;;;;;;;;;;8.09;60.61;99711.56;2103019;83;20465;-86
2022/03/29 06:53:40;;;;;;;;;;;;;;;8.05;60.69;99708.06;2101363;84;20184;-83
2022/03/29 06:56:41;;;;;;;;;;;;;;;8.09;60.91;99701.48;2102535;83;20155;-85
2022/03/29 06:59:42;;;;;;;;;;;;;;;8.10;60.93;99707.09;2108126;83;20163;-83
2022/03/29 07:02:45;;;;;;;;;;;;;;;7.96;60.87;99712.49;2130013;82;20182;-85
2022/03/29 07:05:48;;;;;;;;;;;;;;;7.88;60.99;99714.28;2132122;82;20161;-82
2022/03/29 07:12:08;;;;;;;;;;;;;;;7.97;61.40;99708.03;2130988;82;20193;-83
2022/03/29 07:15:10;;;;;;;;;;;;;;;8.04;61.33;99707.23;2125616;82;20116;-84
2022/03/29 07:18:11;;;;;;;;;;;;;;;8.04;61.43;99709.88;2127168;82;20478;-84
2022/03/29 07:21:12;;;;;;;;;;;;;;;8.13;61.26;99712.55;2129057;82;20136;-86
2022/03/29 07:24:13;;;;;;;;;;;;;;;8.16;61.26;99706.95;2126805;82;20189;-83
2022/03/29 07:27:14;;;;;;;;;;;;;;;8.19;61.45;99711.91;2129187;82;20149;-85
2022/03/29 07:30:15;;;;;;;;;;;;;;;8.20;61.16;99714.40;2125393;82;20167;-84
2022/03/29 07:33:19;;;;;;;;;;;;;;;8.23;61.30;99706.65;2129884;82;20466;-84
2022/03/29 07:36:20;;;;;;;;;;;;;;;8.31;61.50;99707.48;2129742;82;20164;-85
2022/03/29 07:39:22;;;;;;;;;;;;;;;8.35;61.19;99704.02;2126312;82;20625;-82
2022/03/29 07:42:23;;;;;;;;;;;;;;;8.40;61.04;99700.93;2127307;82;20160;-83
2022/03/29 07:45:24;;;;;;;;;;;;;;;8.45;61.13;99695.98;2128378;82;20168;-85
2022/03/29 07:48:25;;;;;;;;;;;;;;;8.52;60.95;99695.15;2127340;82;20146;-85
2022/03/29 07:51:26;;;;;;;;;;;;;;;8.59;60.97;99694.48;2128977;82;20175;-84
2022/03/29 07:54:27;;;;;;;;;;;;;;;8.69;60.87;99683.27;2132739;82;20501;-82
2022/03/29 07:57:28;;;;;;;;;;;;;;;8.76;60.68;99686.92;2126568;82;20128;-82
2022/03/29 08:00:32;;;;;;;;;;;;;;;8.83;60.61;99683.92;2122694;82;20206;-85
2022/03/29 08:03:36;;;;;;;;;;;;;;;8.94;60.45;99688.87;2120022;83;20152;-84
2022/03/29 08:06:37;;;;;;;;;;;;;;;9.00;60.35;99683.41;2115789;83;20142;-82
2022/03/29 08:09:38;;;;;;;;;;;;;;;9.01;60.17;99673.65;2118161;83;20229;-82
2022/03/29 08:12:43;;;;;;;;;;;;;;;9.01;60.10;99673.65;2121599;83;20120;-83
2022/03/29 08:15:46;;;;;;;;;;;;;;;9.03;60.03;99666.37;2117737;83;20488;-82
2022/03/29 08:18:47;;;;;;;;;;;;;;;9.02;60.11;99666.06;2128523;83;20130;-82
2022/03/29 08:21:49;;;;;;;;;;;;;;;9.05;60.07;99669.69;2118937;83;20453;-83
2022/03/29 08:24:51;;;;;;;;;;;;;;;9.12;60.13;99664.04;2123471;83;20173;-82
2022/03/29 08:27:54;;;;;;;;;;;;;;;9.18;59.98;99667.36;2118947;83;20139;-84
2022/03/29 08:30:55;;;;;;;;;;;;;;;9.20;59.77;99671.47;2126003;83;20185;-85
2022/03/29 08:33:56;;;;;;;;;;;;;;;9.22;59.88;99668.66;2120106;83;20179;-81
2022/03/29 08:36:57;;;;;;;;;;;;;;;9.29;59.92;99663.50;2120298;83;20445;-81
2022/03/29 08:39:58;;;;;;;;;;;;;;;9.37;59.74;99663.48;2119717;83;20108;-82
2022/03/29 08:43:00;;;;;;;;;;;;;;;9.36;59.71;99652.08;2118585;83;20152;-82
2022/03/29 08:46:01;;;;;;;;;;;;;;;9.36;59.49;99652.08;2117860;83;20457;-80
2022/03/29 08:49:03;;;;;;;;;;;;;;;9.42;59.43;99661.98;2117821;83;20186;-83
2022/03/29 08:52:05;;;;;;;;;;;;;;;9.48;59.31;99666.27;2121587;83;20149;-80
2022/03/29 08:55:08;;;;;;;;;;;;;;;9.53;59.40;99658.14;2125139;83;20140;-81
2022/03/29 08:58:09;;;;;;;;;;;;;;;9.63;59.27;99662.75;2119774;83;20109;-82
2022/03/29 09:01:10;;;;;;;;;;;;;;;9.73;59.25;99659.88;2117058;83;20473;-81
2022/03/29 09:04:16;;;;;;;;;;;;;;;9.84;59.10;99660.83;2121838;83;20169;-83
2022/03/29 09:07:17;;;;;;;;;;;;;;;9.92;58.84;99658.64;2123173;83;20146;-81
2022/03/29 09:10:21;;;;;;;;;;;;;;;10.06;58.57;99653.92;2112770;83;20130;-85
2022/03/29 09:13:25;;;;;;;;;;;;;;;10.19;58.27;99647.21;2122543;83;20191;-81
2022/03/29 09:16:29;;;;;;;;;;;;;;;10.29;57.86;99654.48;2117564;83;20188;-81
2022/03/29 09:19:34;;;;;;;;;;;;;;;10.37;57.77;99656.26;2123890;83;20174;-84
2022/03/29 09:22:45;;;;;;;;;;;;;;;10.48;57.32;99659.83;2118618;83;20166;-83
2022/03/29 09:25:47;;;;;;;;;;;;;;;10.58;57.43;99648.96;2118458;83;20163;-83
2022/03/29 09:28:50;;;;;;;;;;;;;;;10.64;57.15;99646.91;2121117;83;20128;-79
2022/03/29 09:32:17;;;;;;;;;;;;;;;10.79;57.01;99649.13;2118313;83;20191;-84
2022/03/29 09:35:14;;;;;;;;;;;;;;;10.92;56.70;99643.19;2114079;83;20185;-79
2022/03/29 09:38:30;;;;;;;;;;;;;;;11.17;56.70;99636.62;2124804;83;20127;-83
2022/03/29 09:41:32;;;;;;;;;;;;;;;11.54;56.17;99638.04;2121498;83;20164;-81
2022/03/29 09:44:50;;;;;;;;;;;;;;;11.76;55.25;99626.47;2119853;83;20148;-82
2022/03/29 09:47:53;;;;;;;;;;;;;;;11.70;54.78;99626.39;2124632;83;20425;-82
2022/03/29 09:51:03;;;;;;;;;;;;;;;11.81;55.01;99615.28;2119373;83;20154;-82
2022/03/29 09:54:04;;;;;;;;;;;;;;;11.85;54.18;99613.88;2121628;83;20134;-82
2022/03/29 09:57:05;;;;;;;;;;;;;;;11.78;54.56;99615.66;2114680;83;20544;-82
2022/03/29 10:00:08;;;;;;;;;;;;;;;11.71;53.84;99610.24;2119168;83;20188;-81
2022/03/29 10:03:12;;;;;;;;;;;;;;;11.52;54.01;99613.51;2117497;83;20150;-83
2022/03/29 10:06:15;;;;;;;;;;;;;;;11.32;53.92;99615.88;2123681;83;20187;-83
2022/03/29 10:09:28;;;;;;;;;;;;;;;11.21;54.05;99609.22;2118762;83;20237;-83
2022/03/29 10:12:29;;;;;;;;;;;;;;;11.09;54.20;99610.16;2120062;83;20176;-80
2022/03/29 10:15:30;;;;;;;;;;;;;;;11.00;54.19;99607.27;2122296;83;20226;-82
2022/03/29 10:18:31;;;;;;;;;;;;;;;10.87;54.22;99609.72;2119482;83;20134;-82
2022/03/29 10:21:32;;;;;;;;;;;;;;;10.70;54.42;99597.95;2122951;83;20175;-83
2022/03/29 10:24:33;;;;;;;;;;;;;;;10.57;54.26;99604.37;2127522;83;20486;-86
2022/03/29 10:27:34;;;;;;;;;;;;;;;10.48;54.59;99598.81;2126477;83;20108;-82
2022/03/29 10:30:41;;;;;;;;;;;;;;;10.61;55.03;99598.19;2126548;83;20185;-82
2022/03/29 10:33:42;;;;;;;;;;;;;;;11.01;54.77;99598.32;2119301;83;20130;-80
2022/03/29 10:37:01;;;;;;;;;;;;;;;11.20;54.08;99604.39;2117411;83;20142;-80
2022/03/29 10:40:05;;;;;;;;;;;;;;;11.16;53.56;99594.33;2120040;83;20174;-82
2022/03/29 10:43:24;;;;;;;;;;;;;;;11.02;53.78;99591.99;2120311;83;20173;-80
2022/03/29 10:46:38;;;;;;;;;;;;;;;11.07;53.70;99590.13;2111610;83;20142;-81
2022/03/29 10:49:43;;;;;;;;;;;;;;;11.17;52.92;99589.33;2123566;83;20160;-80
2022/03/29 10:52:47;;;;;;;;;;;;;;;11.19;52.79;99584.16;2114298;83;20162;-78
2022/03/29 10:56:08;;;;;;;;;;;;;;;11.38;52.73;99589.42;2119529;83;20148;-81
2022/03/29 10:59:09;;;;;;;;;;;;;;;11.65;53.02;99583.91;2118435;83;20248;-80
2022/03/29 11:02:20;;;;;;;;;;;;;;;11.83;52.19;99584.84;2111171;83;20159;-82
2022/03/29 11:05:21;;;;;;;;;;;;;;;11.95;51.92;99587.05;2113792;83;20148;-83
2022/03/29 11:08:22;;;;;;;;;;;;;;;11.95;51.51;99571.91;2085133;84;20197;-84
2022/03/29 11:11:46;;;;;;;;;;;;;;;12.10;51.56;99575.33;2090255;84;20431;-82
2022/03/29 11:14:47;;;;;;;;;;;;;;;12.35;51.10;99569.63;2095572;84;20155;-83
2022/03/29 11:17:48;;;;;;;;;;;;;;;12.48;50.14;99568.41;2095364;84;20143;-83
2022/03/29 11:20:59;;;;;;;;;;;;;;;12.44;50.17;99565.80;2093428;84;20146;-81
2022/03/29 11:23:59;;;;;;;;;;;;;;;12.30;50.07;99570.22;2093899;84;20119;-84
2022/03/29 11:27:00;;;;;;;;;;;;;;;12.06;49.90;99566.09;2111020;82;20134;-80
2022/03/29 11:30:04;;;;;;;;;;;;;;;11.90;49.80;99565.00;2109432;82;20166;-81
2022/03/29 11:33:07;;;;;;;;;;;;;;;11.68;49.74;99565.44;2110266;83;20751;-82
2022/03/29 11:36:09;;;;;;;;;;;;;;;11.65;50.41;99557.34;2110803;83;20179;-82
2022/03/29 11:39:25;;;;;;;;;;;;;;;11.81;50.25;99546.17;2110817;83;20132;-82
2022/03/29 11:42:49;;;;;;;;;;;;;;;11.68;50.11;99542.85;2115442;83;20190;-81
2022/03/29 11:45:52;;;;;;;;;;;;;;;11.50;49.96;99536.64;2122731;83;20125;-81
2022/03/29 11:48:53;;;;;;;;;;;;;;;11.32;50.35;99545.49;2109464;83;20587;-80
2022/03/29 11:52:11;;;;;;;;;;;;;;;11.19;50.06;99539.53;2089926;84;20151;-81
2022/03/29 11:55:16;;;;;;;;;;;;;;;11.05;50.53;99543.84;2092257;83;20567;-82
2022/03/29 11:58:30;;;;;;;;;;;;;;;11.02;50.59;99541.55;2095823;84;20191;-79
2022/03/29 12:01:31;;;;;;;;;;;;;;;11.02;50.92;99533.59;2132159;82;20428;-79
2022/03/29 12:04:33;;;;;;;;;;;;;;;11.16;51.06;99531.94;2096957;83;20168;-82
2022/03/29 12:07:44;;;;;;;;;;;;;;;11.42;51.26;99527.45;2090160;83;20136;-81
2022/03/29 12:10:44;;;;;;;;;;;;;;;11.60;50.74;99519.91;2093200;83;20167;-82
2022/03/29 12:13:47;;;;;;;;;;;;;;;11.84;50.65;99511.23;2115304;83;20191;-80
2022/03/29 12:16:53;;;;;;;;;;;;;;;12.01;50.50;99514.50;2117677;83;20140;-80
2022/03/29 12:19:55;;;;;;;;;;;;;;;11.99;50.11;99513.34;2111475;83;20131;-82
2022/03/29 12:22:56;;;;;;;;;;;;;;;11.94;50.30;99501.16;2116448;83;20164;-81
2022/03/29 12:25:57;;;;;;;;;;;;;;;11.99;49.74;99494.73;2110018;83;20206;-82
2022/03/29 12:29:00;;;;;;;;;;;;;;;11.93;50.03;99488.03;2110353;83;20202;-80
2022/03/29 12:32:02;;;;;;;;;;;;;;;11.89;49.74;99486.27;2112665;83;20108;-83
2022/03/29 12:35:05;;;;;;;;;;;;;;;11.76;49.79;99481.61;2116344;83;20685;-79
2022/03/29 12:38:11;;;;;;;;;;;;;;;11.89;49.97;99480.95;2119809;83;20604;-81
2022/03/29 12:41:14;;;;;;;;;;;;;;;11.90;49.51;99493.22;2112740;83;20286;-82
2022/03/29 12:44:32;;;;;;;;;;;;;;;11.64;49.40;99486.61;2116404;83;20582;-79
2022/03/29 12:47:34;;;;;;;;;;;;;;;11.45;49.45;99483.23;2113848;83;20135;-81
2022/03/29 12:50:35;;;;;;;;;;;;;;;11.27;49.94;99477.02;2107822;83;20135;-83
2022/03/29 12:53:36;;;;;;;;;;;;;;;11.21;49.79;99471.13;2110291;83;20468;-79
2022/03/29 12:56:40;;;;;;;;;;;;;;;11.07;49.95;99474.13;2107616;83;20166;-82
2022/03/29 12:59:45;;;;;;;;;;;;;;;10.95;50.17;99475.59;2088708;83;20105;-83
2022/03/29 13:02:49;;;;;;;;;;;;;;;10.90;50.44;99464.73;2114986;83;21161;-84
2022/03/29 13:05:51;;;;;;;;;;;;;;;10.99;50.73;99458.30;2112004;83;20294;-83
2022/03/29 13:09:02;;;;;;;;;;;;;;;11.11;50.86;99454.66;2114805;83;20131;-81
2022/03/29 13:12:14;;;;;;;;;;;;;;;11.12;50.68;99454.48;2118703;83;20160;-81
2022/03/29 13:15:51;;;;;;;;;;;;;;;11.06;50.61;99454.39;2108718;83;20163;-83
2022/03/29 13:18:52;;;;;;;;;;;;;;;10.99;50.68;99445.84;2114205;83;20159;-81
2022/03/29 13:22:02;;;;;;;;;;;;;;;10.92;50.95;99436.15;2114777;83;20155;-81
2022/03/29 13:25:03;;;;;;;;;;;;;;;10.83;50.96;99432.78;2114723;83;20189;-82
2022/03/29 13:28:05;;;;;;;;;;;;;;;10.66;51.26;99428.17;2111794;83;20533;-80
2022/03/29 13:31:09;;;;;;;;;;;;;;;10.57;51.31;99435.91;2107636;83;20161;-83
2022/03/29 13:34:10;;;;;;;;;;;;;;;10.59;51.81;99427.28;2114080;83;20163;-80
2022/03/29 13:37:11;;;;;;;;;;;;;;;10.64;51.52;99431.50;2109939;83;20137;-80
2022/03/29 13:40:12;;;;;;;;;;;;;;;10.70;51.31;99422.83;2116003;83;20132;-78
2022/03/29 13:43:14;;;;;;;;;;;;;;;10.74;51.25;99418.79;2110832;83;20478;-80
2022/03/29 13:46:15;;;;;;;;;;;;;;;10.60;50.83;99411.67;2112192;83;20143;-83
2022/03/29 13:49:16;;;;;;;;;;;;;;;10.45;50.86;99413.01;2097468;83;20135;-82
2022/03/29 13:52:17;;;;;;;;;;;;;;;10.34;51.05;99409.99;2121912;83;20183;-83
2022/03/29 13:55:19;;;;;;;;;;;;;;;10.23;50.89;99414.70;2118425;83;20336;-83
2022/03/29 13:58:20;;;;;;;;;;;;;;;10.22;50.93;99410.41;2113632;83;20144;-82
2022/03/29 14:01:21;;;;;;;;;;;;;;;10.17;50.59;99394.73;2119230;83;20151;-79
2022/03/29 14:04:22;;;;;;;;;;;;;;;10.14;50.61;99399.89;2120503;83;20300;-80
2022/03/29 14:07:23;;;;;;;;;;;;;;;10.18;50.59;99399.83;2120326;83;20666;-80
2022/03/29 14:10:25;;;;;;;;;;;;;;;10.25;50.62;99399.95;2122511;83;20455;-80
2022/03/29 14:13:28;;;;;;;;;;;;;;;10.23;50.27;99392.16;2122701;83;20118;-80
2022/03/29 14:16:29;;;;;;;;;;;;;;;10.16;50.21;99399.18;2123784;83;20294;-81
2022/03/29 14:19:30;;;;;;;;;;;;;;;10.09;50.34;99392.98;2120841;83;20146;-82
2022/03/29 14:22:32;;;;;;;;;;;;;;;10.06;50.44;99394.66;2118301;83;20184;-84
2022/03/29 14:25:36;;;;;;;;;;;;;;;9.90;50.43;99397.47;2123182;83;20488;-81
2022/03/29 14:28:37;;;;;;;;;;;;;;;9.79;50.68;99398.72;2117728;83;20151;-80
2022/03/29 14:31:37;;;;;;;;;;;;;;;9.70;50.80;99399.29;2120442;83;20162;-84
2022/03/29 14:34:38;;;;;;;;;;;;;;;9.61;50.98;99393.75;2122108;83;20221;-81
2022/03/29 14:37:40;;;;;;;;;;;;;;;9.51;51.12;99390.50;2125612;83;20442;-85
2022/03/29 14:40:41;;;;;;;;;;;;;;;9.45;51.21;99393.87;2121232;83;20120;-85
2022/03/29 14:43:42;;;;;;;;;;;;;;;9.35;51.26;99389.64;2121105;83;20148;-77
2022/03/29 14:46:45;;;;;;;;;;;;;;;9.33;51.50;99381.04;2123879;83;20430;-81
2022/03/29 14:49:46;;;;;;;;;;;;;;;9.39;51.90;99390.92;2116417;83;20134;-82
2022/03/29 14:52:49;;;;;;;;;;;;;;;9.33;51.84;99379.72;2119498;83;20442;-81
2022/03/29 14:55:50;;;;;;;;;;;;;;;9.28;51.94;99386.54;2119792;83;20160;-80
2022/03/29 14:58:51;;;;;;;;;;;;;;;9.24;52.06;99379.45;2116246;83;20158;-81
2022/03/29 15:01:52;;;;;;;;;;;;;;;9.25;52.14;99371.83;2098606;82;20154;-81
2022/03/29 15:04:53;;;;;;;;;;;;;;;9.26;52.21;99370.81;2110901;82;20289;-81
2022/03/29 15:07:55;;;;;;;;;;;;;;;9.24;52.45;99370.19;2104842;82;20177;-80
2022/03/29 15:10:57;;;;;;;;;;;;;;;9.18;52.59;99370.91;2112070;82;21006;-81
2022/03/29 15:13:58;;;;;;;;;;;;;;;9.16;52.63;99367.09;2101522;82;20496;-81
2022/03/29 15:16:59;;;;;;;;;;;;;;;9.13;52.87;99364.80;2110951;82;20164;-80
2022/03/29 15:20:02;;;;;;;;;;;;;;;9.12;52.98;99363.64;2104518;82;20116;-81
2022/03/29 15:23:03;;;;;;;;;;;;;;;9.09;53.18;99363.99;2095372;82;20455;-81
2022/03/29 15:26:05;;;;;;;;;;;;;;;9.03;53.34;99360.73;2106982;82;20118;-82
2022/03/29 15:29:06;;;;;;;;;;;;;;;8.96;53.67;99353.50;2106390;82;20154;-81
2022/03/29 15:32:07;;;;;;;;;;;;;;;8.98;53.65;99355.95;2110037;82;20142;-82
2022/03/29 15:35:08;;;;;;;;;;;;;;;8.98;53.74;99356.80;2108674;82;20453;-82
2022/03/29 15:38:11;;;;;;;;;;;;;;;9.00;54.05;99361.08;2104145;82;20158;-81
2022/03/29 15:41:13;;;;;;;;;;;;;;;8.92;53.92;99360.63;2107642;82;20136;-84
2022/03/29 15:44:14;;;;;;;;;;;;;;;8.84;54.11;99357.55;2104218;82;20160;-81
2022/03/29 15:47:17;;;;;;;;;;;;;;;8.74;54.17;99351.14;2100149;82;20190;-81
2022/03/29 15:50:19;;;;;;;;;;;;;;;8.66;55.26;99351.68;2105724;82;20156;-85
2022/03/29 15:53:20;;;;;;;;;;;;;;;8.60;54.57;99353.20;2104767;82;20130;-83
2022/03/29 15:56:21;;;;;;;;;;;;;;;8.55;55.51;99346.27;2106495;82;20228;-83
2022/03/29 15:59:22;;;;;;;;;;;;;;;8.43;55.34;99351.12;2103850;82;20861;-81
2022/03/29 16:02:23;;;;;;;;;;;;;;;8.35;55.22;99348.47;2112941;83;20147;-83
2022/03/29 16:05:25;;;;;;;;;;;;;;;8.28;55.48;99339.09;2119051;83;20121;-82
2022/03/29 16:08:32;;;;;;;;;;;;;;;8.27;55.52;99353.78;2119453;83;20139;-83
2022/03/29 16:11:29;;;;;;;;;;;;;;;8.24;55.77;99342.23;2121212;83;20166;-81